AUA753Y LOWW-LATI
Flight info
| Callsign | AUA753Y |
|---|---|
| Flight time | N/A |
| Altitude | 33000 |
| Route | ARSIN DCT NALOX DCT OSDUK DCT VIBOP DCT AKIKA DCT INLOT |
| Aircraft | B738/M-SDE2E3FGHIRWXY/LB1 |
Departure
| Time | N/A |
|---|---|
| Airport | Vienna International Airport (LOWW) |
Arrival
| Time | 2026-05-06 08:30 |
|---|---|
| Airport | Tirana International Airport Mother Teresa (LATI) |
| Time | Latitude | Longitude | Altitude | Speed | Heading |
|---|---|---|---|---|---|
| 2026-05-06 07:23 | 47.66673 | 16.53486 | 13368 ft | 365 kts | 172° |
| 2026-05-06 07:24 | 47.64764 | 16.54229 | 13698 ft | 372 kts | 162° |
| 2026-05-06 07:24 | 47.62560 | 16.56274 | 14136 ft | 384 kts | 139° |
| 2026-05-06 07:24 | 47.61041 | 16.59551 | 14590 ft | 396 kts | 116° |
| 2026-05-06 07:24 | 47.60117 | 16.63422 | 15058 ft | 400 kts | 111° |
| 2026-05-06 07:25 | 47.59207 | 16.67273 | 15499 ft | 402 kts | 114° |
| 2026-05-06 07:25 | 47.58043 | 16.71033 | 15931 ft | 400 kts | 126° |
| 2026-05-06 07:25 | 47.56184 | 16.74033 | 16385 ft | 395 kts | 146° |
| 2026-05-06 07:25 | 47.53976 | 16.76350 | 16853 ft | 396 kts | 149° |
| 2026-05-06 07:26 | 47.51599 | 16.78400 | 17294 ft | 396 kts | 159° |
| 2026-05-06 07:26 | 47.48963 | 16.79445 | 17725 ft | 393 kts | 179° |
| 2026-05-06 07:26 | 47.46244 | 16.79304 | 18205 ft | 392 kts | 188° |
| 2026-05-06 07:26 | 47.43540 | 16.78716 | 18654 ft | 394 kts | 191° |
| 2026-05-06 07:27 | 47.40865 | 16.77978 | 19101 ft | 396 kts | 191° |
| 2026-05-06 07:27 | 47.38088 | 16.77677 | 19554 ft | 400 kts | 182° |
| 2026-05-06 07:27 | 47.35307 | 16.77795 | 20016 ft | 403 kts | 180° |
| 2026-05-06 07:27 | 47.32518 | 16.77978 | 20471 ft | 406 kts | 180° |
| 2026-05-06 07:28 | 47.29681 | 16.78174 | 20929 ft | 410 kts | 180° |
| 2026-05-06 07:28 | 47.26843 | 16.78393 | 21386 ft | 411 kts | 180° |
| 2026-05-06 07:28 | 47.21120 | 16.78876 | 22304 ft | 415 kts | 180° |
| 2026-05-06 07:29 | 47.18243 | 16.79124 | 22763 ft | 419 kts | 180° |
| 2026-05-06 07:29 | 47.15326 | 16.79392 | 23223 ft | 422 kts | 180° |
| 2026-05-06 07:29 | 47.12381 | 16.79654 | 23692 ft | 424 kts | 180° |
| 2026-05-06 07:29 | 47.09445 | 16.79905 | 24163 ft | 426 kts | 180° |
| 2026-05-06 07:30 | 47.06493 | 16.80160 | 24637 ft | 429 kts | 180° |
| 2026-05-06 07:30 | 47.03520 | 16.80437 | 25110 ft | 432 kts | 180° |
| 2026-05-06 07:30 | 47.00528 | 16.80717 | 25579 ft | 435 kts | 180° |
| 2026-05-06 07:30 | 46.97493 | 16.80994 | 26050 ft | 438 kts | 180° |
| 2026-05-06 07:31 | 46.94433 | 16.81284 | 26519 ft | 441 kts | 180° |
| 2026-05-06 07:31 | 46.91385 | 16.81768 | 26994 ft | 447 kts | 173° |
| 2026-05-06 07:31 | 46.88337 | 16.82858 | 27467 ft | 454 kts | 165° |
| 2026-05-06 07:31 | 46.85449 | 16.84713 | 27944 ft | 463 kts | 154° |
| 2026-05-06 07:32 | 46.82769 | 16.87362 | 28427 ft | 470 kts | 145° |
| 2026-05-06 07:32 | 46.80239 | 16.90416 | 28904 ft | 472 kts | 143° |
| 2026-05-06 07:32 | 46.77775 | 16.93493 | 29378 ft | 469 kts | 143° |
| 2026-05-06 07:32 | 46.75304 | 16.96557 | 29855 ft | 467 kts | 143° |
| 2026-05-06 07:33 | 46.72830 | 16.99600 | 30345 ft | 466 kts | 143° |
| 2026-05-06 07:33 | 46.70383 | 17.02611 | 30805 ft | 466 kts | 144° |
| 2026-05-06 07:33 | 46.67889 | 17.05674 | 31292 ft | 466 kts | 143° |
| 2026-05-06 07:33 | 46.65426 | 17.08692 | 31771 ft | 467 kts | 143° |
| 2026-05-06 07:34 | 46.62960 | 17.11717 | 32260 ft | 467 kts | 143° |
| 2026-05-06 07:34 | 46.60486 | 17.14762 | 32751 ft | 467 kts | 143° |
| 2026-05-06 07:34 | 46.58016 | 17.17814 | 33214 ft | 468 kts | 143° |
| 2026-05-06 07:34 | 46.55539 | 17.20859 | 33309 ft | 474 kts | 144° |
| 2026-05-06 07:35 | 46.50555 | 17.26975 | 33309 ft | 462 kts | 144° |
| 2026-05-06 07:35 | 46.45634 | 17.32979 | 33318 ft | 466 kts | 144° |
| 2026-05-06 07:36 | 46.40673 | 17.39024 | 33305 ft | 470 kts | 143° |
| 2026-05-06 07:36 | 46.35700 | 17.45070 | 33314 ft | 467 kts | 143° |
| 2026-05-06 07:37 | 46.30754 | 17.51084 | 33311 ft | 467 kts | 143° |
| 2026-05-06 07:37 | 46.25776 | 17.57116 | 33227 ft | 468 kts | 143° |
| 2026-05-06 07:38 | 46.20800 | 17.63119 | 33147 ft | 467 kts | 143° |
| 2026-05-06 07:38 | 46.15804 | 17.69140 | 33115 ft | 467 kts | 144° |
| 2026-05-06 07:39 | 46.10846 | 17.75096 | 33091 ft | 468 kts | 144° |
| 2026-05-06 07:39 | 46.05842 | 17.81087 | 33069 ft | 470 kts | 144° |
| 2026-05-06 07:40 | 46.00838 | 17.87061 | 33040 ft | 469 kts | 144° |
| 2026-05-06 07:40 | 45.95828 | 17.93020 | 33020 ft | 470 kts | 144° |
| 2026-05-06 07:41 | 45.90783 | 17.99027 | 32984 ft | 470 kts | 144° |
| 2026-05-06 07:41 | 45.85756 | 18.04990 | 33077 ft | 467 kts | 144° |
| 2026-05-06 07:42 | 45.83278 | 18.07919 | 33315 ft | 468 kts | 144° |
| 2026-05-06 07:42 | 45.80715 | 18.10880 | 33327 ft | 474 kts | 146° |
| 2026-05-06 07:42 | 45.75244 | 18.15862 | 33324 ft | 464 kts | 155° |
| 2026-05-06 07:43 | 45.69561 | 18.20211 | 33314 ft | 465 kts | 155° |
| 2026-05-06 07:43 | 45.63881 | 18.24576 | 33309 ft | 466 kts | 155° |
| 2026-05-06 07:44 | 45.58199 | 18.28930 | 33305 ft | 467 kts | 155° |
| 2026-05-06 07:44 | 45.52449 | 18.33322 | 33302 ft | 467 kts | 155° |
| 2026-05-06 07:45 | 45.46783 | 18.37630 | 33301 ft | 465 kts | 155° |
| 2026-05-06 07:45 | 45.41061 | 18.41953 | 33299 ft | 466 kts | 155° |
| 2026-05-06 07:46 | 45.35334 | 18.46261 | 33217 ft | 470 kts | 155° |
| 2026-05-06 07:46 | 45.29577 | 18.50592 | 33038 ft | 467 kts | 155° |
| 2026-05-06 07:47 | 45.23840 | 18.54894 | 33033 ft | 467 kts | 155° |
| 2026-05-06 07:47 | 45.18077 | 18.59199 | 33030 ft | 470 kts | 155° |
| 2026-05-06 07:48 | 45.12328 | 18.63495 | 33023 ft | 470 kts | 155° |
| 2026-05-06 07:48 | 45.06560 | 18.67781 | 33020 ft | 469 kts | 155° |
| 2026-05-06 07:49 | 45.00724 | 18.71884 | 33014 ft | 467 kts | 161° |
| 2026-05-06 07:49 | 44.94559 | 18.74604 | 33016 ft | 464 kts | 169° |
| 2026-05-06 07:50 | 44.88361 | 18.76938 | 33015 ft | 463 kts | 168° |
| 2026-05-06 07:50 | 44.82146 | 18.79268 | 33015 ft | 463 kts | 169° |
| 2026-05-06 07:51 | 44.75921 | 18.81583 | 33014 ft | 464 kts | 168° |
| 2026-05-06 07:51 | 44.69711 | 18.83874 | 33013 ft | 463 kts | 168° |
| 2026-05-06 07:52 | 44.63504 | 18.86151 | 33013 ft | 463 kts | 168° |
| 2026-05-06 07:52 | 44.57267 | 18.88439 | 33015 ft | 464 kts | 168° |
| 2026-05-06 07:53 | 44.51038 | 18.90716 | 33014 ft | 464 kts | 168° |
| 2026-05-06 07:53 | 44.47932 | 18.91847 | 33206 ft | 459 kts | 168° |
| 2026-05-06 07:53 | 44.44833 | 18.92975 | 33320 ft | 463 kts | 168° |
| 2026-05-06 07:54 | 44.38564 | 18.95254 | 33331 ft | 465 kts | 168° |
| 2026-05-06 07:54 | 44.32361 | 18.97515 | 33347 ft | 461 kts | 168° |
| 2026-05-06 07:55 | 44.26127 | 18.99774 | 33354 ft | 463 kts | 168° |
| 2026-05-06 07:55 | 44.19896 | 19.02023 | 33354 ft | 464 kts | 168° |
| 2026-05-06 07:56 | 44.13692 | 19.04256 | 33370 ft | 463 kts | 168° |
| 2026-05-06 07:56 | 44.07471 | 19.06487 | 33371 ft | 463 kts | 168° |
| 2026-05-06 07:57 | 44.01238 | 19.08719 | 33378 ft | 463 kts | 168° |
| 2026-05-06 07:57 | 43.94981 | 19.10963 | 33379 ft | 464 kts | 168° |
| 2026-05-06 07:58 | 43.88768 | 19.13189 | 33383 ft | 463 kts | 168° |
| 2026-05-06 07:58 | 43.82526 | 19.15415 | 33386 ft | 463 kts | 168° |
| 2026-05-06 07:59 | 43.76288 | 19.17635 | 33376 ft | 465 kts | 168° |
| 2026-05-06 07:59 | 43.70024 | 19.19859 | 33093 ft | 468 kts | 168° |
| 2026-05-06 08:00 | 43.66888 | 19.20968 | 32672 ft | 466 kts | 168° |
| 2026-05-06 08:00 | 43.63785 | 19.22069 | 32264 ft | 463 kts | 168° |
| 2026-05-06 08:00 | 43.60665 | 19.23173 | 31853 ft | 460 kts | 168° |
| 2026-05-06 08:00 | 43.57601 | 19.24255 | 31420 ft | 458 kts | 169° |
| 2026-05-06 08:01 | 43.54539 | 19.25333 | 30959 ft | 456 kts | 168° |
| 2026-05-06 08:01 | 43.51443 | 19.26422 | 30491 ft | 455 kts | 168° |
| 2026-05-06 08:01 | 43.48402 | 19.27492 | 30032 ft | 453 kts | 168° |
| 2026-05-06 08:01 | 43.45351 | 19.28564 | 29578 ft | 452 kts | 168° |
| 2026-05-06 08:02 | 43.42322 | 19.29626 | 29133 ft | 450 kts | 168° |
| 2026-05-06 08:02 | 43.39297 | 19.30685 | 28688 ft | 449 kts | 168° |
| 2026-05-06 08:02 | 43.36287 | 19.31740 | 28242 ft | 448 kts | 168° |
| 2026-05-06 08:02 | 43.33299 | 19.32785 | 27800 ft | 446 kts | 168° |
| 2026-05-06 08:03 | 43.30297 | 19.33834 | 27357 ft | 445 kts | 168° |
| 2026-05-06 08:03 | 43.27301 | 19.34880 | 26910 ft | 444 kts | 168° |
| 2026-05-06 08:03 | 43.24272 | 19.35938 | 26465 ft | 448 kts | 168° |
| 2026-05-06 08:03 | 43.21258 | 19.36986 | 26025 ft | 450 kts | 168° |
| 2026-05-06 08:04 | 43.18250 | 19.38033 | 25586 ft | 451 kts | 168° |
| 2026-05-06 08:04 | 43.15222 | 19.39085 | 25142 ft | 449 kts | 168° |
| 2026-05-06 08:04 | 43.12213 | 19.40131 | 24701 ft | 447 kts | 168° |
| 2026-05-06 08:04 | 43.09175 | 19.41189 | 24250 ft | 445 kts | 168° |
| 2026-05-06 08:05 | 43.06216 | 19.42216 | 23811 ft | 444 kts | 168° |
| 2026-05-06 08:05 | 43.03211 | 19.43257 | 23366 ft | 442 kts | 168° |
| 2026-05-06 08:05 | 43.00233 | 19.44289 | 22925 ft | 440 kts | 168° |
| 2026-05-06 08:05 | 42.97297 | 19.45304 | 22549 ft | 437 kts | 168° |
| 2026-05-06 08:06 | 42.94380 | 19.46312 | 22195 ft | 433 kts | 168° |
| 2026-05-06 08:06 | 42.91463 | 19.47319 | 21839 ft | 430 kts | 168° |
| 2026-05-06 08:06 | 42.88575 | 19.48317 | 21486 ft | 426 kts | 168° |
| 2026-05-06 08:06 | 42.85741 | 19.49293 | 21135 ft | 423 kts | 168° |
| 2026-05-06 08:07 | 42.82887 | 19.50277 | 20785 ft | 420 kts | 167° |
| 2026-05-06 08:07 | 42.80085 | 19.51239 | 20442 ft | 417 kts | 167° |
| 2026-05-06 08:07 | 42.77291 | 19.52201 | 20096 ft | 414 kts | 167° |
| 2026-05-06 08:07 | 42.74501 | 19.53161 | 19749 ft | 411 kts | 167° |
| 2026-05-06 08:08 | 42.71763 | 19.54102 | 19402 ft | 408 kts | 167° |
| 2026-05-06 08:08 | 42.69020 | 19.55041 | 19057 ft | 405 kts | 167° |
| 2026-05-06 08:08 | 42.66304 | 19.55970 | 18710 ft | 402 kts | 167° |
| 2026-05-06 08:08 | 42.63607 | 19.56894 | 18374 ft | 399 kts | 167° |
| 2026-05-06 08:09 | 42.60928 | 19.57807 | 18034 ft | 397 kts | 167° |
| 2026-05-06 08:09 | 42.58244 | 19.58723 | 17689 ft | 394 kts | 167° |
| 2026-05-06 08:09 | 42.55603 | 19.59527 | 17346 ft | 390 kts | 172° |
| 2026-05-06 08:09 | 42.52913 | 19.59873 | 17006 ft | 385 kts | 182° |
| 2026-05-06 08:10 | 42.50296 | 19.59530 | 16675 ft | 380 kts | 192° |
| 2026-05-06 08:10 | 42.47719 | 19.58836 | 16335 ft | 377 kts | 193° |
| 2026-05-06 08:10 | 42.45155 | 19.58118 | 15982 ft | 375 kts | 193° |
| 2026-05-06 08:10 | 42.42607 | 19.57419 | 15629 ft | 373 kts | 193° |
| 2026-05-06 08:11 | 42.40063 | 19.56728 | 15287 ft | 371 kts | 193° |
| 2026-05-06 08:11 | 42.37557 | 19.56043 | 14927 ft | 369 kts | 193° |
| 2026-05-06 08:11 | 42.35020 | 19.55351 | 14560 ft | 367 kts | 193° |
| 2026-05-06 08:11 | 42.32547 | 19.54676 | 14201 ft | 365 kts | 192° |
| 2026-05-06 08:12 | 42.30052 | 19.53996 | 13850 ft | 363 kts | 192° |
| 2026-05-06 08:12 | 42.27605 | 19.53330 | 13514 ft | 362 kts | 192° |
| 2026-05-06 08:12 | 42.25128 | 19.52658 | 13150 ft | 360 kts | 192° |
| 2026-05-06 08:12 | 42.22698 | 19.51997 | 12799 ft | 358 kts | 192° |
| 2026-05-06 08:13 | 42.20261 | 19.51336 | 12459 ft | 356 kts | 192° |
| 2026-05-06 08:13 | 42.17834 | 19.50677 | 12067 ft | 354 kts | 192° |
| 2026-05-06 08:13 | 42.15479 | 19.50039 | 11851 ft | 335 kts | 192° |
| 2026-05-06 08:13 | 42.13271 | 19.49444 | 11857 ft | 313 kts | 192° |
| 2026-05-06 08:14 | 42.11207 | 19.48887 | 11860 ft | 293 kts | 192° |
| 2026-05-06 08:14 | 42.09269 | 19.48364 | 11879 ft | 274 kts | 192° |
| 2026-05-06 08:14 | 42.07462 | 19.47876 | 11862 ft | 257 kts | 192° |
| 2026-05-06 08:14 | 42.05730 | 19.47407 | 11611 ft | 251 kts | 192° |
| 2026-05-06 08:15 | 42.04038 | 19.46945 | 11303 ft | 248 kts | 192° |
| 2026-05-06 08:15 | 42.02358 | 19.46489 | 10943 ft | 246 kts | 192° |
| 2026-05-06 08:15 | 42.00669 | 19.46032 | 10527 ft | 246 kts | 192° |
| 2026-05-06 08:15 | 41.98996 | 19.45575 | 10074 ft | 245 kts | 192° |
| 2026-05-06 08:16 | 41.97311 | 19.45401 | 9628 ft | 246 kts | 174° |
| 2026-05-06 08:16 | 41.95625 | 19.45788 | 9171 ft | 246 kts | 169° |
| 2026-05-06 08:16 | 41.93953 | 19.46234 | 8707 ft | 245 kts | 169° |
| 2026-05-06 08:16 | 41.92319 | 19.46644 | 8439 ft | 236 kts | 170° |
| 2026-05-06 08:17 | 41.90733 | 19.47024 | 8173 ft | 229 kts | 170° |
| 2026-05-06 08:17 | 41.89175 | 19.47396 | 7899 ft | 223 kts | 170° |
| 2026-05-06 08:17 | 41.87675 | 19.47753 | 7633 ft | 217 kts | 170° |
| 2026-05-06 08:17 | 41.86200 | 19.48105 | 7372 ft | 212 kts | 170° |
| 2026-05-06 08:18 | 41.84764 | 19.48449 | 7093 ft | 208 kts | 170° |
| 2026-05-06 08:18 | 41.83334 | 19.48790 | 6829 ft | 209 kts | 170° |
| 2026-05-06 08:18 | 41.81918 | 19.49128 | 6553 ft | 209 kts | 170° |
| 2026-05-06 08:18 | 41.80488 | 19.49468 | 6273 ft | 208 kts | 170° |
| 2026-05-06 08:19 | 41.79078 | 19.49804 | 6041 ft | 201 kts | 170° |
| 2026-05-06 08:19 | 41.77730 | 19.50121 | 5748 ft | 195 kts | 170° |
| 2026-05-06 08:19 | 41.76402 | 19.50436 | 5456 ft | 190 kts | 170° |
| 2026-05-06 08:19 | 41.75113 | 19.50738 | 5180 ft | 185 kts | 170° |
| 2026-05-06 08:20 | 41.73873 | 19.51021 | 4922 ft | 180 kts | 170° |
| 2026-05-06 08:20 | 41.72656 | 19.51298 | 4679 ft | 173 kts | 170° |
| 2026-05-06 08:20 | 41.71497 | 19.51565 | 4418 ft | 168 kts | 170° |
| 2026-05-06 08:20 | 41.70347 | 19.51844 | 4132 ft | 167 kts | 170° |
| 2026-05-06 08:21 | 41.69218 | 19.52132 | 3901 ft | 166 kts | 171° |
| 2026-05-06 08:21 | 41.68094 | 19.52414 | 3910 ft | 163 kts | 173° |
| 2026-05-06 08:21 | 41.66991 | 19.52718 | 3888 ft | 163 kts | 173° |
| 2026-05-06 08:21 | 41.65872 | 19.52992 | 3881 ft | 162 kts | 174° |
| 2026-05-06 08:22 | 41.64774 | 19.53253 | 3881 ft | 159 kts | 168° |
| 2026-05-06 08:22 | 41.63771 | 19.53861 | 3860 ft | 163 kts | 132° |
| 2026-05-06 08:22 | 41.63428 | 19.55266 | 3888 ft | 170 kts | 79° |
| 2026-05-06 08:22 | 41.63820 | 19.56762 | 3935 ft | 172 kts | 72° |
| 2026-05-06 08:23 | 41.64091 | 19.58300 | 3893 ft | 169 kts | 84° |
| 2026-05-06 08:23 | 41.64202 | 19.59855 | 3896 ft | 167 kts | 86° |
| 2026-05-06 08:23 | 41.64296 | 19.61413 | 3906 ft | 170 kts | 85° |
| 2026-05-06 08:23 | 41.64401 | 19.62995 | 3900 ft | 172 kts | 84° |
| 2026-05-06 08:24 | 41.64512 | 19.64591 | 3905 ft | 172 kts | 83° |
| 2026-05-06 08:24 | 41.64633 | 19.66200 | 3914 ft | 173 kts | 85° |
| 2026-05-06 08:24 | 41.64519 | 19.67757 | 3886 ft | 171 kts | 116° |
| 2026-05-06 08:24 | 41.63707 | 19.68842 | 3915 ft | 169 kts | 161° |
| 2026-05-06 08:25 | 41.62546 | 19.69182 | 3927 ft | 171 kts | 173° |
| 2026-05-06 08:25 | 41.61393 | 19.69382 | 3713 ft | 166 kts | 174° |
| 2026-05-06 08:25 | 41.60258 | 19.69559 | 3563 ft | 163 kts | 174° |
| 2026-05-06 08:25 | 41.59128 | 19.69718 | 3349 ft | 164 kts | 175° |
| 2026-05-06 08:26 | 41.57990 | 19.69870 | 3130 ft | 160 kts | 175° |
| 2026-05-06 08:26 | 41.56886 | 19.70017 | 2890 ft | 159 kts | 175° |
| 2026-05-06 08:26 | 41.55804 | 19.70161 | 2696 ft | 158 kts | 175° |
| 2026-05-06 08:26 | 41.54697 | 19.70307 | 2478 ft | 159 kts | 176° |
| 2026-05-06 08:27 | 41.53598 | 19.70453 | 2268 ft | 159 kts | 176° |
| 2026-05-06 08:27 | 41.52494 | 19.70600 | 2049 ft | 161 kts | 175° |
| 2026-05-06 08:27 | 41.51361 | 19.70750 | 1829 ft | 163 kts | 176° |
| 2026-05-06 08:27 | 41.50232 | 19.70899 | 1608 ft | 164 kts | 175° |
| 2026-05-06 08:28 | 41.49094 | 19.71050 | 1384 ft | 163 kts | 175° |
| 2026-05-06 08:28 | 41.47971 | 19.71198 | 1165 ft | 161 kts | 175° |
| 2026-05-06 08:28 | 41.46876 | 19.71345 | 926 ft | 160 kts | 174° |
| 2026-05-06 08:28 | 41.45752 | 19.71505 | 753 ft | 159 kts | 174° |
| 2026-05-06 08:29 | 41.44665 | 19.71655 | 567 ft | 160 kts | 175° |
| 2026-05-06 08:29 | 41.43566 | 19.71790 | 342 ft | 161 kts | 175° |
| 2026-05-06 08:29 | 41.42467 | 19.71921 | 133 ft | 156 kts | 175° |
| 2026-05-06 08:29 | 41.41536 | 19.72043 | 125 ft | 100 kts | 174° |
| 2026-05-06 08:30 | 41.41127 | 19.72099 | 128 ft | 28 kts | 173° |
| 2026-05-06 08:30 | 41.41000 | 19.72123 | 129 ft | 11 kts | 169° |
| 2026-05-06 08:30 | 41.40941 | 19.72129 | 130 ft | 5 kts | 179° |
| 2026-05-06 08:30 | 41.40903 | 19.72133 | 130 ft | 7 kts | 176° |
| 2026-05-06 08:31 | 41.40843 | 19.72134 | 130 ft | 10 kts | 177° |
| 2026-05-06 08:31 | 41.40765 | 19.72140 | 130 ft | 12 kts | 178° |
| 2026-05-06 08:31 | 41.40690 | 19.72109 | 130 ft | 12 kts | 238° |
| 2026-05-06 08:31 | 41.40664 | 19.72007 | 130 ft | 11 kts | 257° |
| 2026-05-06 08:32 | 41.40642 | 19.71882 | 128 ft | 14 kts | 255° |
| 2026-05-06 08:32 | 41.40658 | 19.71781 | 127 ft | 10 kts | 332° |
| 2026-05-06 08:32 | 41.40741 | 19.71761 | 127 ft | 13 kts | 352° |
| 2026-05-06 08:32 | 41.40843 | 19.71741 | 127 ft | 15 kts | 351° |
| 2026-05-06 08:33 | 41.40948 | 19.71720 | 127 ft | 15 kts | 352° |
| 2026-05-06 08:33 | 41.41051 | 19.71699 | 127 ft | 15 kts | 353° |
| 2026-05-06 08:33 | 41.41157 | 19.71688 | 127 ft | 15 kts | 355° |
| 2026-05-06 08:33 | 41.41264 | 19.71672 | 125 ft | 16 kts | 353° |
| 2026-05-06 08:34 | 41.41374 | 19.71658 | 124 ft | 15 kts | 354° |
| 2026-05-06 08:34 | 41.41586 | 19.71626 | 122 ft | 15 kts | 353° |
| 2026-05-06 08:34 | 41.41695 | 19.71618 | 120 ft | 15 kts | 354° |
| 2026-05-06 08:35 | 41.41801 | 19.71605 | 120 ft | 15 kts | 356° |
| 2026-05-06 08:35 | 41.41874 | 19.71553 | 120 ft | 10 kts | 267° |
| 2026-05-06 08:35 | 41.41873 | 19.71534 | 120 ft | 0 kts | 266° |